sensor_id;sensor_type;location;lat;lon;timestamp;pressure;altitude;pressure_sealevel;temperature;humidity
50087;BME280;35967;50.718;7.050;2023-03-04T00:05:40;101713.78;;;2.45;86.01
50087;BME280;35967;50.718;7.050;2023-03-04T00:15:45;101715.06;;;2.31;86.46
50087;BME280;35967;50.718;7.050;2023-03-04T00:25:48;101714.41;;;2.38;86.46
50087;BME280;35967;50.718;7.050;2023-03-04T00:35:52;101708.75;;;2.47;86.52
50087;BME280;35967;50.718;7.050;2023-03-04T00:45:56;101702.94;;;2.52;86.79
50087;BME280;35967;50.718;7.050;2023-03-04T00:56:00;101708.94;;;2.55;86.69
50087;BME280;35967;50.718;7.050;2023-03-04T01:06:05;101708.09;;;2.54;87.04
50087;BME280;35967;50.718;7.050;2023-03-04T01:16:10;101703.06;;;2.56;87.17
50087;BME280;35967;50.718;7.050;2023-03-04T01:26:15;101688.69;;;2.56;87.28
50087;BME280;35967;50.718;7.050;2023-03-04T01:36:22;101681.88;;;2.55;87.30
50087;BME280;35967;50.718;7.050;2023-03-04T01:46:27;101665.84;;;2.58;87.72
50087;BME280;35967;50.718;7.050;2023-03-04T01:56:36;101651.41;;;2.57;88.13
50087;BME280;35967;50.718;7.050;2023-03-04T02:06:41;101658.38;;;2.64;88.08
50087;BME280;35967;50.718;7.050;2023-03-04T02:16:47;101648.22;;;2.65;87.79
50087;BME280;35967;50.718;7.050;2023-03-04T02:26:51;101632.28;;;2.71;87.27
50087;BME280;35967;50.718;7.050;2023-03-04T02:36:55;101633.84;;;2.66;86.69
50087;BME280;35967;50.718;7.050;2023-03-04T02:47:04;101634.78;;;2.68;86.43
50087;BME280;35967;50.718;7.050;2023-03-04T02:57:09;101622.91;;;2.68;86.27
50087;BME280;35967;50.718;7.050;2023-03-04T03:07:17;101617.13;;;2.74;86.30
50087;BME280;35967;50.718;7.050;2023-03-04T03:17:22;101614.63;;;2.77;86.07
50087;BME280;35967;50.718;7.050;2023-03-04T03:27:29;101603.59;;;2.75;86.04
50087;BME280;35967;50.718;7.050;2023-03-04T03:37:33;101597.03;;;2.83;86.16
50087;BME280;35967;50.718;7.050;2023-03-04T03:47:39;101590.28;;;2.86;86.10
50087;BME280;35967;50.718;7.050;2023-03-04T03:57:42;101590.22;;;2.82;86.10
50087;BME280;35967;50.718;7.050;2023-03-04T04:07:48;101577.66;;;2.90;86.02
50087;BME280;35967;50.718;7.050;2023-03-04T04:17:54;101585.31;;;2.90;86.10
50087;BME280;35967;50.718;7.050;2023-03-04T04:28:22;101582.84;;;2.93;86.18
50087;BME280;35967;50.718;7.050;2023-03-04T04:38:25;101578.38;;;2.84;86.38
50087;BME280;35967;50.718;7.050;2023-03-04T04:48:32;101582.84;;;2.93;86.41
50087;BME280;35967;50.718;7.050;2023-03-04T04:58:37;101573.72;;;3.02;85.84
50087;BME280;35967;50.718;7.050;2023-03-04T05:08:42;101574.56;;;3.02;85.74
50087;BME280;35967;50.718;7.050;2023-03-04T05:18:45;101588.28;;;3.07;85.36
50087;BME280;35967;50.718;7.050;2023-03-04T05:28:52;101586.59;;;3.09;85.65
50087;BME280;35967;50.718;7.050;2023-03-04T05:38:56;101580.81;;;3.15;85.45
50087;BME280;35967;50.718;7.050;2023-03-04T05:49:01;101582.53;;;3.16;85.31
50087;BME280;35967;50.718;7.050;2023-03-04T05:59:04;101597.09;;;3.23;85.21
50087;BME280;35967;50.718;7.050;2023-03-04T06:09:13;101601.41;;;3.26;85.50
50087;BME280;35967;50.718;7.050;2023-03-04T06:19:19;101609.94;;;3.28;85.49
50087;BME280;35967;50.718;7.050;2023-03-04T06:29:23;101614.22;;;3.30;85.65
50087;BME280;35967;50.718;7.050;2023-03-04T06:39:53;101618.50;;;3.31;85.46
50087;BME280;35967;50.718;7.050;2023-03-04T06:49:59;101621.97;;;3.35;85.22
50087;BME280;35967;50.718;7.050;2023-03-04T07:00:05;101627.97;;;3.37;85.62
50087;BME280;35967;50.718;7.050;2023-03-04T07:10:10;101635.59;;;3.36;86.00
50087;BME280;35967;50.718;7.050;2023-03-04T07:20:13;101640.81;;;3.42;86.06
50087;BME280;35967;50.718;7.050;2023-03-04T07:30:19;101649.66;;;3.58;85.55
50087;BME280;35967;50.718;7.050;2023-03-04T07:40:23;101656.34;;;3.54;85.76
50087;BME280;35967;50.718;7.050;2023-03-04T07:50:28;101657.22;;;3.55;86.01
50087;BME280;35967;50.718;7.050;2023-03-04T08:00:31;101661.44;;;3.54;86.31
50087;BME280;35967;50.718;7.050;2023-03-04T08:10:36;101662.44;;;3.59;86.05
50087;BME280;35967;50.718;7.050;2023-03-04T08:20:41;101666.84;;;3.68;86.41
50087;BME280;35967;50.718;7.050;2023-03-04T08:31:08;101677.94;;;3.70;85.89
50087;BME280;35967;50.718;7.050;2023-03-04T08:41:12;101674.75;;;3.81;85.16
50087;BME280;35967;50.718;7.050;2023-03-04T08:51:19;101674.84;;;3.84;85.16
50087;BME280;35967;50.718;7.050;2023-03-04T09:01:22;101675.03;;;3.91;85.21
50087;BME280;35967;50.718;7.050;2023-03-04T09:11:27;101675.13;;;3.96;85.11
50087;BME280;35967;50.718;7.050;2023-03-04T09:21:30;101677.66;;;3.96;85.57
50087;BME280;35967;50.718;7.050;2023-03-04T09:31:34;101675.28;;;4.04;86.25
50087;BME280;35967;50.718;7.050;2023-03-04T09:41:40;101674.66;;;4.16;85.41
50087;BME280;35967;50.718;7.050;2023-03-04T09:51:54;101677.50;;;4.28;85.61
50087;BME280;35967;50.718;7.050;2023-03-04T10:01:59;101675.28;;;4.47;85.57
50087;BME280;35967;50.718;7.050;2023-03-04T10:12:11;101665.34;;;4.59;85.82
50087;BME280;35967;50.718;7.050;2023-03-04T10:22:19;101644.88;;;5.05;84.87
50087;BME280;35967;50.718;7.050;2023-03-04T10:32:24;101642.00;;;5.39;83.64
50087;BME280;35967;50.718;7.050;2023-03-04T10:42:28;101630.81;;;5.30;82.52
50087;BME280;35967;50.718;7.050;2023-03-04T10:52:45;101640.78;;;5.15;83.21
50087;BME280;35967;50.718;7.050;2023-03-04T11:02:51;101634.81;;;5.14;82.54
50087;BME280;35967;50.718;7.050;2023-03-04T11:12:59;101625.03;;;5.42;83.43
50087;BME280;35967;50.718;7.050;2023-03-04T11:23:05;101623.25;;;5.38;84.87
50087;BME280;35967;50.718;7.050;2023-03-04T11:33:19;101611.31;;;5.35;84.59
50087;BME280;35967;50.718;7.050;2023-03-04T11:43:31;101609.16;;;5.63;83.00
50087;BME280;35967;50.718;7.050;2023-03-04T11:53:45;101599.91;;;5.72;84.37
50087;BME280;35967;50.718;7.050;2023-03-04T12:14:33;101569.50;;;5.92;84.56
50087;BME280;35967;50.718;7.050;2023-03-04T12:24:57;101555.06;;;5.95;83.54
50087;BME280;35967;50.718;7.050;2023-03-04T12:35:17;101542.25;;;5.92;82.05
50087;BME280;35967;50.718;7.050;2023-03-04T12:45:29;101541.34;;;5.87;82.36
50087;BME280;35967;50.718;7.050;2023-03-04T12:55:38;101523.50;;;5.92;81.97
50087;BME280;35967;50.718;7.050;2023-03-04T13:05:57;101502.38;;;6.04;81.78
50087;BME280;35967;50.718;7.050;2023-03-04T13:16:29;101499.91;;;6.14;81.90
50087;BME280;35967;50.718;7.050;2023-03-04T13:26:35;101495.69;;;6.17;81.63
50087;BME280;35967;50.718;7.050;2023-03-04T13:36:57;101482.91;;;6.17;81.49
50087;BME280;35967;50.718;7.050;2023-03-04T13:47:07;101472.69;;;6.18;80.44
50087;BME280;35967;50.718;7.050;2023-03-04T13:57:18;101459.91;;;6.21;80.93
50087;BME280;35967;50.718;7.050;2023-03-04T14:07:24;101452.28;;;6.23;80.80
50087;BME280;35967;50.718;7.050;2023-03-04T14:17:32;101444.53;;;6.15;81.06
50087;BME280;35967;50.718;7.050;2023-03-04T14:27:37;101440.34;;;6.20;81.77
50087;BME280;35967;50.718;7.050;2023-03-04T14:37:48;101426.72;;;6.24;82.62
50087;BME280;35967;50.718;7.050;2023-03-04T14:48:19;101417.28;;;6.17;84.05
50087;BME280;35967;50.718;7.050;2023-03-04T14:58:27;101400.19;;;6.10;83.42
50087;BME280;35967;50.718;7.050;2023-03-04T15:08:33;101397.63;;;6.08;84.33
50087;BME280;35967;50.718;7.050;2023-03-04T15:18:39;101389.09;;;6.08;84.49
50087;BME280;35967;50.718;7.050;2023-03-04T15:28:57;101382.28;;;6.13;84.23
50087;BME280;35967;50.718;7.050;2023-03-04T15:39:03;101373.78;;;6.14;84.39
50087;BME280;35967;50.718;7.050;2023-03-04T15:49:06;101379.75;;;6.11;83.96
50087;BME280;35967;50.718;7.050;2023-03-04T15:59:13;101378.03;;;6.09;84.01
50087;BME280;35967;50.718;7.050;2023-03-04T16:09:17;101376.34;;;6.14;83.97
50087;BME280;35967;50.718;7.050;2023-03-04T16:19:25;101381.47;;;6.11;83.71
50087;BME280;35967;50.718;7.050;2023-03-04T16:29:31;101373.75;;;6.05;84.66
50087;BME280;35967;50.718;7.050;2023-03-04T16:39:37;101375.44;;;6.06;85.28
50087;BME280;35967;50.718;7.050;2023-03-04T16:49:42;101369.38;;;5.97;87.68
50087;BME280;35967;50.718;7.050;2023-03-04T16:59:46;101359.97;;;5.92;87.99
50087;BME280;35967;50.718;7.050;2023-03-04T17:09:50;101358.25;;;5.94;86.88
50087;BME280;35967;50.718;7.050;2023-03-04T17:19:54;101360.84;;;5.95;86.36
50087;BME280;35967;50.718;7.050;2023-03-04T17:29:58;101360.78;;;5.86;89.63
50087;BME280;35967;50.718;7.050;2023-03-04T17:40:05;101370.09;;;5.82;90.98
50087;BME280;35967;50.718;7.050;2023-03-04T17:50:11;101381.16;;;5.81;92.51
50087;BME280;35967;50.718;7.050;2023-03-04T18:00:18;101376.84;;;5.73;94.45
50087;BME280;35967;50.718;7.050;2023-03-04T18:10:21;101376.75;;;5.66;96.33
50087;BME280;35967;50.718;7.050;2023-03-04T18:20:25;101382.22;;;6.02;96.18
50087;BME280;35967;50.718;7.050;2023-03-04T18:30:28;101377.03;;;5.93;95.03
50087;BME280;35967;50.718;7.050;2023-03-04T18:40:32;101374.34;;;5.80;95.30
50087;BME280;35967;50.718;7.050;2023-03-04T18:50:36;101371.81;;;5.83;95.08
50087;BME280;35967;50.718;7.050;2023-03-04T19:00:41;101372.66;;;5.85;94.38
50087;BME280;35967;50.718;7.050;2023-03-04T19:10:45;101364.97;;;5.79;93.58
50087;BME280;35967;50.718;7.050;2023-03-04T19:20:51;101367.50;;;5.79;93.34
50087;BME280;35967;50.718;7.050;2023-03-04T19:30:55;101368.34;;;5.77;93.18
50087;BME280;35967;50.718;7.050;2023-03-04T19:41:08;101376.94;;;5.83;92.14
50087;BME280;35967;50.718;7.050;2023-03-04T19:51:13;101376.94;;;5.83;90.94
50087;BME280;35967;50.718;7.050;2023-03-04T20:01:22;101376.00;;;5.77;90.67
50087;BME280;35967;50.718;7.050;2023-03-04T20:11:29;101382.00;;;5.79;90.52
50087;BME280;35967;50.718;7.050;2023-03-04T20:21:34;101376.88;;;5.79;89.58
50087;BME280;35967;50.718;7.050;2023-03-04T20:31:39;101374.25;;;5.68;87.44
50087;BME280;35967;50.718;7.050;2023-03-04T20:41:43;101383.75;;;5.84;87.34
50087;BME280;35967;50.718;7.050;2023-03-04T20:51:47;101383.66;;;5.75;84.70
50087;BME280;35967;50.718;7.050;2023-03-04T21:01:52;101369.97;;;5.70;83.74
50087;BME280;35967;50.718;7.050;2023-03-04T21:11:58;101363.09;;;5.61;83.46
50087;BME280;35967;50.718;7.050;2023-03-04T21:22:03;101352.91;;;5.64;82.66
50087;BME280;35967;50.718;7.050;2023-03-04T21:32:11;101359.72;;;5.64;82.97
50087;BME280;35967;50.718;7.050;2023-03-04T21:42:26;101351.16;;;5.62;83.36
50087;BME280;35967;50.718;7.050;2023-03-04T21:52:31;101354.56;;;5.59;82.54
50087;BME280;35967;50.718;7.050;2023-03-04T22:02:36;101351.16;;;5.60;82.44
50087;BME280;35967;50.718;7.050;2023-03-04T22:12:39;101350.28;;;5.58;82.24
50087;BME280;35967;50.718;7.050;2023-03-04T22:22:44;101346.06;;;5.60;82.65
50087;BME280;35967;50.718;7.050;2023-03-04T22:32:48;101354.59;;;5.65;82.96
50087;BME280;35967;50.718;7.050;2023-03-04T22:42:54;101343.44;;;5.54;82.45
50087;BME280;35967;50.718;7.050;2023-03-04T22:52:59;101347.75;;;5.60;82.59
50087;BME280;35967;50.718;7.050;2023-03-04T23:03:04;101334.13;;;5.56;82.40
50087;BME280;35967;50.718;7.050;2023-03-04T23:13:32;101329.69;;;5.40;82.75
50087;BME280;35967;50.718;7.050;2023-03-04T23:23:37;101324.50;;;5.33;82.06
50087;BME280;35967;50.718;7.050;2023-03-04T23:34:03;101321.09;;;5.33;82.17
50087;BME280;35967;50.718;7.050;2023-03-04T23:44:09;101315.22;;;5.42;81.88
50087;BME280;35967;50.718;7.050;2023-03-04T23:54:13;101315.22;;;5.40;82.20
